sensor_id;sensor_type;location;lat;lon;timestamp;P1;durP1;ratioP1;P2;durP2;ratioP2
46589;SDS011;32313;48.722;9.362;2022-07-29T00:02:13;21.40;;;19.27;;
46589;SDS011;32313;48.722;9.362;2022-07-29T00:04:39;22.77;;;20.77;;
46589;SDS011;32313;48.722;9.362;2022-07-29T00:07:05;21.67;;;19.57;;
46589;SDS011;32313;48.722;9.362;2022-07-29T00:09:31;21.70;;;19.50;;
46589;SDS011;32313;48.722;9.362;2022-07-29T00:11:58;19.97;;;17.93;;
46589;SDS011;32313;48.722;9.362;2022-07-29T00:14:25;20.93;;;19.03;;
46589;SDS011;32313;48.722;9.362;2022-07-29T00:16:52;22.10;;;20.10;;
46589;SDS011;32313;48.722;9.362;2022-07-29T00:19:17;21.43;;;19.57;;
46589;SDS011;32313;48.722;9.362;2022-07-29T00:21:43;23.60;;;21.43;;
46589;SDS011;32313;48.722;9.362;2022-07-29T00:24:09;21.83;;;19.80;;
46589;SDS011;32313;48.722;9.362;2022-07-29T00:26:34;24.23;;;21.97;;
46589;SDS011;32313;48.722;9.362;2022-07-29T00:29:01;22.43;;;20.50;;
46589;SDS011;32313;48.722;9.362;2022-07-29T00:31:28;20.80;;;18.90;;
46589;SDS011;32313;48.722;9.362;2022-07-29T00:33:55;22.00;;;20.00;;
46589;SDS011;32313;48.722;9.362;2022-07-29T00:36:21;25.93;;;23.63;;
46589;SDS011;32313;48.722;9.362;2022-07-29T00:38:49;25.00;;;22.73;;
46589;SDS011;32313;48.722;9.362;2022-07-29T00:41:16;24.83;;;22.70;;
46589;SDS011;32313;48.722;9.362;2022-07-29T00:43:42;24.67;;;22.30;;
46589;SDS011;32313;48.722;9.362;2022-07-29T00:46:08;26.30;;;23.73;;
46589;SDS011;32313;48.722;9.362;2022-07-29T00:48:34;21.97;;;19.97;;
46589;SDS011;32313;48.722;9.362;2022-07-29T00:51:06;23.27;;;21.07;;
46589;SDS011;32313;48.722;9.362;2022-07-29T00:53:36;26.27;;;23.90;;
46589;SDS011;32313;48.722;9.362;2022-07-29T00:56:02;22.63;;;20.63;;
46589;SDS011;32313;48.722;9.362;2022-07-29T00:58:27;24.43;;;22.10;;
46589;SDS011;32313;48.722;9.362;2022-07-29T01:00:53;27.83;;;25.13;;
46589;SDS011;32313;48.722;9.362;2022-07-29T01:03:19;26.87;;;24.33;;
46589;SDS011;32313;48.722;9.362;2022-07-29T01:05:45;26.80;;;24.37;;
46589;SDS011;32313;48.722;9.362;2022-07-29T01:08:11;26.93;;;24.33;;
46589;SDS011;32313;48.722;9.362;2022-07-29T01:10:39;28.77;;;25.77;;
46589;SDS011;32313;48.722;9.362;2022-07-29T01:13:06;30.17;;;27.27;;
46589;SDS011;32313;48.722;9.362;2022-07-29T01:15:33;28.03;;;25.27;;
46589;SDS011;32313;48.722;9.362;2022-07-29T01:18:12;25.80;;;23.13;;
46589;SDS011;32313;48.722;9.362;2022-07-29T01:34:11;30.30;;;27.33;;
46589;SDS011;32313;48.722;9.362;2022-07-29T01:37:05;29.53;;;26.70;;
46589;SDS011;32313;48.722;9.362;2022-07-29T01:39:43;33.10;;;29.80;;
46589;SDS011;32313;48.722;9.362;2022-07-29T01:42:15;28.67;;;26.17;;
46589;SDS011;32313;48.722;9.362;2022-07-29T01:44:54;21.00;;;19.20;;
46589;SDS011;32313;48.722;9.362;2022-07-29T01:47:25;28.17;;;25.57;;
46589;SDS011;32313;48.722;9.362;2022-07-29T01:49:56;27.73;;;25.00;;
46589;SDS011;32313;48.722;9.362;2022-07-29T01:52:31;25.17;;;22.93;;
46589;SDS011;32313;48.722;9.362;2022-07-29T01:55:15;33.37;;;30.07;;
46589;SDS011;32313;48.722;9.362;2022-07-29T01:57:43;28.70;;;25.90;;
46589;SDS011;32313;48.722;9.362;2022-07-29T02:00:12;29.23;;;26.27;;
46589;SDS011;32313;48.722;9.362;2022-07-29T02:02:40;29.53;;;26.73;;
46589;SDS011;32313;48.722;9.362;2022-07-29T02:05:10;27.77;;;25.33;;
46589;SDS011;32313;48.722;9.362;2022-07-29T02:07:40;27.63;;;24.87;;
46589;SDS011;32313;48.722;9.362;2022-07-29T02:10:06;26.70;;;24.33;;
46589;SDS011;32313;48.722;9.362;2022-07-29T02:12:33;29.13;;;26.37;;
46589;SDS011;32313;48.722;9.362;2022-07-29T02:15:01;33.93;;;30.53;;
46589;SDS011;32313;48.722;9.362;2022-07-29T02:17:33;34.07;;;30.63;;
46589;SDS011;32313;48.722;9.362;2022-07-29T02:20:04;33.90;;;30.40;;
46589;SDS011;32313;48.722;9.362;2022-07-29T02:22:31;31.83;;;28.53;;
46589;SDS011;32313;48.722;9.362;2022-07-29T02:25:00;30.43;;;27.63;;
46589;SDS011;32313;48.722;9.362;2022-07-29T02:27:26;28.23;;;25.50;;
46589;SDS011;32313;48.722;9.362;2022-07-29T02:29:54;30.53;;;27.53;;
46589;SDS011;32313;48.722;9.362;2022-07-29T02:32:23;27.33;;;24.83;;
46589;SDS011;32313;48.722;9.362;2022-07-29T02:34:51;26.37;;;24.00;;
46589;SDS011;32313;48.722;9.362;2022-07-29T02:37:17;27.80;;;25.23;;
46589;SDS011;32313;48.722;9.362;2022-07-29T02:39:44;32.07;;;29.07;;
46589;SDS011;32313;48.722;9.362;2022-07-29T02:42:15;32.33;;;29.27;;
46589;SDS011;32313;48.722;9.362;2022-07-29T02:44:42;30.37;;;27.43;;
46589;SDS011;32313;48.722;9.362;2022-07-29T02:47:27;26.87;;;24.43;;
46589;SDS011;32313;48.722;9.362;2022-07-29T02:50:20;35.80;;;32.13;;
46589;SDS011;32313;48.722;9.362;2022-07-29T02:53:05;37.57;;;33.60;;
46589;SDS011;32313;48.722;9.362;2022-07-29T02:55:37;32.00;;;29.00;;
46589;SDS011;32313;48.722;9.362;2022-07-29T02:58:13;32.73;;;29.63;;
46589;SDS011;32313;48.722;9.362;2022-07-29T03:00:51;32.87;;;29.53;;
46589;SDS011;32313;48.722;9.362;2022-07-29T03:03:19;29.37;;;26.50;;
46589;SDS011;32313;48.722;9.362;2022-07-29T03:05:46;33.60;;;30.37;;
46589;SDS011;32313;48.722;9.362;2022-07-29T03:08:12;32.83;;;29.73;;
46589;SDS011;32313;48.722;9.362;2022-07-29T03:10:42;37.43;;;33.47;;
46589;SDS011;32313;48.722;9.362;2022-07-29T03:13:09;27.90;;;25.20;;
46589;SDS011;32313;48.722;9.362;2022-07-29T03:15:37;29.27;;;26.67;;
46589;SDS011;32313;48.722;9.362;2022-07-29T03:18:04;24.23;;;22.17;;
46589;SDS011;32313;48.722;9.362;2022-07-29T03:20:30;29.43;;;26.50;;
46589;SDS011;32313;48.722;9.362;2022-07-29T03:22:56;25.40;;;22.97;;
46589;SDS011;32313;48.722;9.362;2022-07-29T03:25:22;22.83;;;20.83;;
46589;SDS011;32313;48.722;9.362;2022-07-29T03:27:48;24.87;;;22.50;;
46589;SDS011;32313;48.722;9.362;2022-07-29T03:30:14;24.93;;;22.73;;
46589;SDS011;32313;48.722;9.362;2022-07-29T03:32:40;24.73;;;22.37;;
46589;SDS011;32313;48.722;9.362;2022-07-29T03:35:07;28.40;;;25.63;;
46589;SDS011;32313;48.722;9.362;2022-07-29T03:37:33;28.33;;;25.63;;
46589;SDS011;32313;48.722;9.362;2022-07-29T03:40:01;29.20;;;26.13;;
46589;SDS011;32313;48.722;9.362;2022-07-29T03:42:30;28.80;;;26.23;;
46589;SDS011;32313;48.722;9.362;2022-07-29T03:44:59;28.40;;;25.60;;
46589;SDS011;32313;48.722;9.362;2022-07-29T03:47:28;28.73;;;26.33;;
46589;SDS011;32313;48.722;9.362;2022-07-29T03:49:59;31.77;;;28.90;;
46589;SDS011;32313;48.722;9.362;2022-07-29T03:52:29;28.00;;;25.40;;
46589;SDS011;32313;48.722;9.362;2022-07-29T03:54:55;33.47;;;30.13;;
46589;SDS011;32313;48.722;9.362;2022-07-29T03:57:23;32.23;;;29.13;;
46589;SDS011;32313;48.722;9.362;2022-07-29T03:59:52;27.93;;;25.27;;
46589;SDS011;32313;48.722;9.362;2022-07-29T04:02:19;27.33;;;24.73;;
46589;SDS011;32313;48.722;9.362;2022-07-29T04:04:45;27.30;;;24.90;;
46589;SDS011;32313;48.722;9.362;2022-07-29T04:07:12;29.23;;;26.43;;
46589;SDS011;32313;48.722;9.362;2022-07-29T04:09:39;25.20;;;22.93;;
46589;SDS011;32313;48.722;9.362;2022-07-29T04:12:05;29.27;;;26.47;;
46589;SDS011;32313;48.722;9.362;2022-07-29T04:14:31;23.73;;;21.63;;
46589;SDS011;32313;48.722;9.362;2022-07-29T04:16:57;25.23;;;22.83;;
46589;SDS011;32313;48.722;9.362;2022-07-29T04:19:24;25.70;;;23.37;;
46589;SDS011;32313;48.722;9.362;2022-07-29T04:21:50;32.10;;;28.87;;
46589;SDS011;32313;48.722;9.362;2022-07-29T04:24:16;30.63;;;27.63;;
46589;SDS011;32313;48.722;9.362;2022-07-29T04:26:42;24.47;;;22.40;;
46589;SDS011;32313;48.722;9.362;2022-07-29T04:29:08;28.20;;;25.60;;
46589;SDS011;32313;48.722;9.362;2022-07-29T04:31:33;30.60;;;27.70;;
46589;SDS011;32313;48.722;9.362;2022-07-29T04:33:59;29.17;;;26.33;;
46589;SDS011;32313;48.722;9.362;2022-07-29T04:36:25;29.67;;;26.80;;
46589;SDS011;32313;48.722;9.362;2022-07-29T04:38:51;27.10;;;24.50;;
46589;SDS011;32313;48.722;9.362;2022-07-29T04:41:16;26.77;;;24.30;;
46589;SDS011;32313;48.722;9.362;2022-07-29T04:43:42;25.40;;;22.90;;
46589;SDS011;32313;48.722;9.362;2022-07-29T04:46:08;27.03;;;24.50;;
46589;SDS011;32313;48.722;9.362;2022-07-29T04:48:33;25.40;;;23.13;;
46589;SDS011;32313;48.722;9.362;2022-07-29T04:50:59;25.23;;;22.97;;
46589;SDS011;32313;48.722;9.362;2022-07-29T04:53:25;25.13;;;22.73;;
46589;SDS011;32313;48.722;9.362;2022-07-29T04:55:51;25.53;;;23.17;;
46589;SDS011;32313;48.722;9.362;2022-07-29T04:58:17;24.53;;;22.13;;
46589;SDS011;32313;48.722;9.362;2022-07-29T05:00:43;23.17;;;21.07;;
46589;SDS011;32313;48.722;9.362;2022-07-29T05:03:08;23.23;;;20.97;;
46589;SDS011;32313;48.722;9.362;2022-07-29T05:05:34;22.90;;;20.83;;
46589;SDS011;32313;48.722;9.362;2022-07-29T05:08:00;21.60;;;19.50;;
46589;SDS011;32313;48.722;9.362;2022-07-29T05:10:26;18.87;;;17.07;;
46589;SDS011;32313;48.722;9.362;2022-07-29T05:12:51;21.90;;;19.83;;
46589;SDS011;32313;48.722;9.362;2022-07-29T05:15:17;22.73;;;20.63;;
46589;SDS011;32313;48.722;9.362;2022-07-29T05:17:43;23.70;;;21.23;;
46589;SDS011;32313;48.722;9.362;2022-07-29T05:20:09;20.87;;;19.10;;
46589;SDS011;32313;48.722;9.362;2022-07-29T05:22:35;24.33;;;22.03;;
46589;SDS011;32313;48.722;9.362;2022-07-29T05:25:01;23.40;;;21.27;;
46589;SDS011;32313;48.722;9.362;2022-07-29T05:27:27;26.83;;;24.23;;
46589;SDS011;32313;48.722;9.362;2022-07-29T05:29:53;26.73;;;24.23;;
46589;SDS011;32313;48.722;9.362;2022-07-29T05:32:19;26.77;;;24.23;;
46589;SDS011;32313;48.722;9.362;2022-07-29T05:34:45;29.13;;;26.17;;
46589;SDS011;32313;48.722;9.362;2022-07-29T05:37:10;27.63;;;24.70;;
46589;SDS011;32313;48.722;9.362;2022-07-29T05:39:38;26.73;;;24.03;;
46589;SDS011;32313;48.722;9.362;2022-07-29T05:42:08;24.07;;;21.97;;
46589;SDS011;32313;48.722;9.362;2022-07-29T05:44:38;27.77;;;25.10;;
46589;SDS011;32313;48.722;9.362;2022-07-29T05:47:04;23.27;;;21.17;;
46589;SDS011;32313;48.722;9.362;2022-07-29T05:49:30;21.77;;;19.77;;
46589;SDS011;32313;48.722;9.362;2022-07-29T05:51:56;23.97;;;21.70;;
46589;SDS011;32313;48.722;9.362;2022-07-29T05:54:21;21.13;;;19.33;;
46589;SDS011;32313;48.722;9.362;2022-07-29T05:56:47;22.60;;;20.50;;
46589;SDS011;32313;48.722;9.362;2022-07-29T05:59:13;21.73;;;19.63;;
46589;SDS011;32313;48.722;9.362;2022-07-29T06:01:38;20.00;;;18.30;;
46589;SDS011;32313;48.722;9.362;2022-07-29T06:04:05;18.13;;;16.53;;
46589;SDS011;32313;48.722;9.362;2022-07-29T06:06:32;18.53;;;16.83;;
46589;SDS011;32313;48.722;9.362;2022-07-29T06:08:58;19.60;;;17.90;;
46589;SDS011;32313;48.722;9.362;2022-07-29T06:11:24;20.10;;;18.23;;
46589;SDS011;32313;48.722;9.362;2022-07-29T06:13:50;18.10;;;16.53;;
46589;SDS011;32313;48.722;9.362;2022-07-29T06:16:16;18.03;;;16.40;;
46589;SDS011;32313;48.722;9.362;2022-07-29T06:18:42;17.20;;;14.90;;
46589;SDS011;32313;48.722;9.362;2022-07-29T06:21:08;17.30;;;15.67;;
46589;SDS011;32313;48.722;9.362;2022-07-29T06:23:35;16.53;;;15.13;;
46589;SDS011;32313;48.722;9.362;2022-07-29T06:26:04;16.30;;;14.77;;
46589;SDS011;32313;48.722;9.362;2022-07-29T06:28:31;17.70;;;15.87;;
46589;SDS011;32313;48.722;9.362;2022-07-29T06:30:57;14.53;;;13.30;;
46589;SDS011;32313;48.722;9.362;2022-07-29T06:33:24;14.43;;;13.03;;
46589;SDS011;32313;48.722;9.362;2022-07-29T06:35:49;14.33;;;13.03;;
46589;SDS011;32313;48.722;9.362;2022-07-29T06:38:15;14.47;;;13.10;;
46589;SDS011;32313;48.722;9.362;2022-07-29T06:40:44;11.93;;;10.93;;
46589;SDS011;32313;48.722;9.362;2022-07-29T06:43:36;12.37;;;11.17;;
46589;SDS011;32313;48.722;9.362;2022-07-29T06:46:10;13.80;;;12.37;;
46589;SDS011;32313;48.722;9.362;2022-07-29T06:48:38;12.03;;;10.93;;
46589;SDS011;32313;48.722;9.362;2022-07-29T06:51:05;11.50;;;10.60;;
46589;SDS011;32313;48.722;9.362;2022-07-29T06:53:31;9.97;;;8.97;;
46589;SDS011;32313;48.722;9.362;2022-07-29T06:55:59;8.93;;;8.20;;
46589;SDS011;32313;48.722;9.362;2022-07-29T06:58:26;8.00;;;7.20;;
46589;SDS011;32313;48.722;9.362;2022-07-29T07:00:56;6.57;;;5.93;;
46589;SDS011;32313;48.722;9.362;2022-07-29T07:03:23;6.60;;;6.00;;
46589;SDS011;32313;48.722;9.362;2022-07-29T07:05:49;6.50;;;5.67;;
46589;SDS011;32313;48.722;9.362;2022-07-29T07:08:17;5.23;;;4.83;;
46589;SDS011;32313;48.722;9.362;2022-07-29T07:10:44;5.37;;;4.77;;
46589;SDS011;32313;48.722;9.362;2022-07-29T07:13:10;4.83;;;4.33;;
46589;SDS011;32313;48.722;9.362;2022-07-29T07:15:36;4.90;;;4.40;;
46589;SDS011;32313;48.722;9.362;2022-07-29T07:18:03;5.97;;;4.30;;
46589;SDS011;32313;48.722;9.362;2022-07-29T07:20:29;5.33;;;4.30;;
46589;SDS011;32313;48.722;9.362;2022-07-29T07:22:55;6.27;;;4.80;;
46589;SDS011;32313;48.722;9.362;2022-07-29T07:25:21;4.87;;;4.20;;
46589;SDS011;32313;48.722;9.362;2022-07-29T07:27:46;6.43;;;4.47;;
46589;SDS011;32313;48.722;9.362;2022-07-29T07:30:12;4.33;;;4.00;;
46589;SDS011;32313;48.722;9.362;2022-07-29T07:32:38;4.77;;;4.33;;
46589;SDS011;32313;48.722;9.362;2022-07-29T07:35:05;4.00;;;3.40;;
46589;SDS011;32313;48.722;9.362;2022-07-29T07:37:32;4.80;;;4.10;;
46589;SDS011;32313;48.722;9.362;2022-07-29T07:39:58;4.20;;;3.80;;
46589;SDS011;32313;48.722;9.362;2022-07-29T07:42:24;5.80;;;4.37;;
46589;SDS011;32313;48.722;9.362;2022-07-29T07:44:50;4.10;;;3.70;;
46589;SDS011;32313;48.722;9.362;2022-07-29T07:47:16;5.63;;;4.00;;
46589;SDS011;32313;48.722;9.362;2022-07-29T07:49:47;4.43;;;3.80;;
46589;SDS011;32313;48.722;9.362;2022-07-29T07:52:17;4.83;;;4.10;;
46589;SDS011;32313;48.722;9.362;2022-07-29T07:54:44;6.30;;;4.03;;
46589;SDS011;32313;48.722;9.362;2022-07-29T07:57:10;4.87;;;3.60;;
46589;SDS011;32313;48.722;9.362;2022-07-29T07:59:39;4.40;;;3.63;;
46589;SDS011;32313;48.722;9.362;2022-07-29T08:02:06;4.38;;;3.70;;
46589;SDS011;32313;48.722;9.362;2022-07-29T08:04:31;4.35;;;3.70;;
46589;SDS011;32313;48.722;9.362;2022-07-29T08:06:57;4.05;;;3.45;;
46589;SDS011;32313;48.722;9.362;2022-07-29T08:09:24;5.45;;;3.40;;
46589;SDS011;32313;48.722;9.362;2022-07-29T08:11:51;3.97;;;3.63;;
46589;SDS011;32313;48.722;9.362;2022-07-29T08:14:17;3.97;;;3.67;;
46589;SDS011;32313;48.722;9.362;2022-07-29T08:16:43;3.47;;;3.17;;
46589;SDS011;32313;48.722;9.362;2022-07-29T08:19:09;4.68;;;3.50;;
46589;SDS011;32313;48.722;9.362;2022-07-29T08:21:35;4.03;;;3.35;;
46589;SDS011;32313;48.722;9.362;2022-07-29T08:24:01;4.07;;;3.33;;
46589;SDS011;32313;48.722;9.362;2022-07-29T08:26:46;5.40;;;3.75;;
46589;SDS011;32313;48.722;9.362;2022-07-29T08:29:11;4.53;;;3.45;;
46589;SDS011;32313;48.722;9.362;2022-07-29T08:31:38;3.92;;;3.53;;
46589;SDS011;32313;48.722;9.362;2022-07-29T08:34:04;4.65;;;4.10;;
46589;SDS011;32313;48.722;9.362;2022-07-29T08:36:31;5.85;;;4.22;;
46589;SDS011;32313;48.722;9.362;2022-07-29T08:38:57;4.40;;;3.90;;
46589;SDS011;32313;48.722;9.362;2022-07-29T08:41:23;3.60;;;3.28;;
46589;SDS011;32313;48.722;9.362;2022-07-29T08:43:50;3.33;;;3.03;;
46589;SDS011;32313;48.722;9.362;2022-07-29T08:46:16;4.30;;;3.35;;
46589;SDS011;32313;48.722;9.362;2022-07-29T08:48:43;3.30;;;3.00;;
46589;SDS011;32313;48.722;9.362;2022-07-29T08:51:12;5.03;;;3.58;;
46589;SDS011;32313;48.722;9.362;2022-07-29T08:53:40;3.30;;;3.00;;
46589;SDS011;32313;48.722;9.362;2022-07-29T08:56:11;6.65;;;4.00;;
46589;SDS011;32313;48.722;9.362;2022-07-29T08:58:44;5.00;;;3.55;;
46589;SDS011;32313;48.722;9.362;2022-07-29T09:01:11;3.92;;;3.53;;
46589;SDS011;32313;48.722;9.362;2022-07-29T09:03:41;3.90;;;3.50;;
46589;SDS011;32313;48.722;9.362;2022-07-29T09:06:08;4.35;;;3.50;;
46589;SDS011;32313;48.722;9.362;2022-07-29T09:08:37;4.70;;;3.28;;
46589;SDS011;32313;48.722;9.362;2022-07-29T09:11:03;6.07;;;3.10;;
46589;SDS011;32313;48.722;9.362;2022-07-29T09:13:29;3.67;;;3.33;;
46589;SDS011;32313;48.722;9.362;2022-07-29T09:15:55;5.38;;;3.47;;
46589;SDS011;32313;48.722;9.362;2022-07-29T09:18:34;4.30;;;3.90;;
46589;SDS011;32313;48.722;9.362;2022-07-29T09:21:09;5.47;;;3.30;;
46589;SDS011;32313;48.722;9.362;2022-07-29T09:24:08;2.92;;;2.72;;
46589;SDS011;32313;48.722;9.362;2022-07-29T09:26:36;4.15;;;2.83;;
46589;SDS011;32313;48.722;9.362;2022-07-29T09:29:08;3.70;;;3.13;;
46589;SDS011;32313;48.722;9.362;2022-07-29T09:31:36;4.20;;;2.90;;
46589;SDS011;32313;48.722;9.362;2022-07-29T09:34:04;5.05;;;3.17;;
46589;SDS011;32313;48.722;9.362;2022-07-29T09:36:30;4.18;;;3.42;;
46589;SDS011;32313;48.722;9.362;2022-07-29T09:39:03;3.22;;;2.92;;
46589;SDS011;32313;48.722;9.362;2022-07-29T09:41:29;4.55;;;3.10;;
46589;SDS011;32313;48.722;9.362;2022-07-29T09:44:08;4.05;;;2.80;;
46589;SDS011;32313;48.722;9.362;2022-07-29T09:46:34;3.20;;;2.90;;
46589;SDS011;32313;48.722;9.362;2022-07-29T09:49:11;3.10;;;2.63;;
46589;SDS011;32313;48.722;9.362;2022-07-29T09:51:38;4.05;;;2.92;;
46589;SDS011;32313;48.722;9.362;2022-07-29T09:54:21;3.95;;;3.25;;
46589;SDS011;32313;48.722;9.362;2022-07-29T09:56:48;4.03;;;3.42;;
46589;SDS011;32313;48.722;9.362;2022-07-29T09:59:14;4.93;;;3.25;;
46589;SDS011;32313;48.722;9.362;2022-07-29T10:01:41;3.30;;;3.10;;
46589;SDS011;32313;48.722;9.362;2022-07-29T10:04:07;4.85;;;3.55;;
46589;SDS011;32313;48.722;9.362;2022-07-29T10:06:33;4.07;;;2.90;;
46589;SDS011;32313;48.722;9.362;2022-07-29T10:09:08;4.22;;;3.30;;
46589;SDS011;32313;48.722;9.362;2022-07-29T10:11:35;3.90;;;3.47;;
46589;SDS011;32313;48.722;9.362;2022-07-29T10:14:01;3.40;;;3.10;;
46589;SDS011;32313;48.722;9.362;2022-07-29T10:16:28;3.03;;;2.70;;
46589;SDS011;32313;48.722;9.362;2022-07-29T10:19:00;4.38;;;3.78;;
46589;SDS011;32313;48.722;9.362;2022-07-29T10:21:26;3.47;;;3.15;;
46589;SDS011;32313;48.722;9.362;2022-07-29T10:23:52;3.75;;;3.00;;
46589;SDS011;32313;48.722;9.362;2022-07-29T10:26:18;3.63;;;3.10;;
46589;SDS011;32313;48.722;9.362;2022-07-29T10:28:45;4.63;;;3.70;;
46589;SDS011;32313;48.722;9.362;2022-07-29T10:31:13;5.57;;;3.88;;
46589;SDS011;32313;48.722;9.362;2022-07-29T10:41:59;3.53;;;3.22;;
46589;SDS011;32313;48.722;9.362;2022-07-29T10:44:35;3.60;;;3.30;;
46589;SDS011;32313;48.722;9.362;2022-07-29T10:47:05;3.88;;;3.50;;
46589;SDS011;32313;48.722;9.362;2022-07-29T10:49:31;5.93;;;3.53;;
46589;SDS011;32313;48.722;9.362;2022-07-29T10:59:45;6.90;;;4.03;;
46589;SDS011;32313;48.722;9.362;2022-07-29T11:10:45;3.40;;;3.10;;
46589;SDS011;32313;48.722;9.362;2022-07-29T11:13:14;4.18;;;3.67;;
46589;SDS011;32313;48.722;9.362;2022-07-29T11:16:11;4.43;;;3.78;;
46589;SDS011;32313;48.722;9.362;2022-07-29T11:21:40;4.63;;;4.22;;
46589;SDS011;32313;48.722;9.362;2022-07-29T11:24:14;6.47;;;4.00;;
46589;SDS011;32313;48.722;9.362;2022-07-29T11:26:44;4.65;;;4.18;;
46589;SDS011;32313;48.722;9.362;2022-07-29T11:29:20;6.60;;;4.10;;
46589;SDS011;32313;48.722;9.362;2022-07-29T11:31:50;5.65;;;4.38;;
46589;SDS011;32313;48.722;9.362;2022-07-29T11:34:32;3.55;;;2.90;;
46589;SDS011;32313;48.722;9.362;2022-07-29T11:39:33;18.70;;;4.60;;
46589;SDS011;32313;48.722;9.362;2022-07-29T11:47:55;20.50;;;6.07;;
46589;SDS011;32313;48.722;9.362;2022-07-29T11:50:41;11.07;;;5.80;;
46589;SDS011;32313;48.722;9.362;2022-07-29T11:53:10;7.00;;;5.27;;
46589;SDS011;32313;48.722;9.362;2022-07-29T11:55:38;11.67;;;6.47;;
46589;SDS011;32313;48.722;9.362;2022-07-29T11:58:05;9.50;;;6.80;;
46589;SDS011;32313;48.722;9.362;2022-07-29T12:02:59;9.60;;;7.80;;
46589;SDS011;32313;48.722;9.362;2022-07-29T12:05:42;9.33;;;8.33;;
46589;SDS011;32313;48.722;9.362;2022-07-29T12:10:47;11.03;;;9.83;;
46589;SDS011;32313;48.722;9.362;2022-07-29T12:13:14;13.27;;;10.50;;
46589;SDS011;32313;48.722;9.362;2022-07-29T12:15:42;10.70;;;9.60;;
46589;SDS011;32313;48.722;9.362;2022-07-29T12:18:17;8.97;;;8.10;;
46589;SDS011;32313;48.722;9.362;2022-07-29T12:20:45;11.07;;;9.80;;
46589;SDS011;32313;48.722;9.362;2022-07-29T12:23:12;9.27;;;8.30;;
46589;SDS011;32313;48.722;9.362;2022-07-29T12:25:38;13.60;;;11.00;;
46589;SDS011;32313;48.722;9.362;2022-07-29T12:28:07;11.17;;;10.00;;
46589;SDS011;32313;48.722;9.362;2022-07-29T12:30:39;11.77;;;10.07;;
46589;SDS011;32313;48.722;9.362;2022-07-29T12:33:13;11.00;;;10.00;;
46589;SDS011;32313;48.722;9.362;2022-07-29T12:35:41;12.23;;;10.77;;
46589;SDS011;32313;48.722;9.362;2022-07-29T12:38:10;12.47;;;11.13;;
46589;SDS011;32313;48.722;9.362;2022-07-29T12:40:37;15.93;;;11.83;;
46589;SDS011;32313;48.722;9.362;2022-07-29T12:43:07;16.10;;;11.33;;
46589;SDS011;32313;48.722;9.362;2022-07-29T12:45:38;10.17;;;8.63;;
46589;SDS011;32313;48.722;9.362;2022-07-29T12:48:06;15.33;;;11.70;;
46589;SDS011;32313;48.722;9.362;2022-07-29T12:50:33;12.33;;;10.90;;
46589;SDS011;32313;48.722;9.362;2022-07-29T12:53:13;13.13;;;10.80;;
46589;SDS011;32313;48.722;9.362;2022-07-29T12:55:49;13.17;;;11.20;;
46589;SDS011;32313;48.722;9.362;2022-07-29T13:01:15;12.13;;;10.87;;
46589;SDS011;32313;48.722;9.362;2022-07-29T13:06:27;14.23;;;11.67;;
46589;SDS011;32313;48.722;9.362;2022-07-29T13:12:01;17.83;;;15.33;;
46589;SDS011;32313;48.722;9.362;2022-07-29T13:14:36;16.13;;;14.03;;
46589;SDS011;32313;48.722;9.362;2022-07-29T13:17:06;17.87;;;14.43;;
46589;SDS011;32313;48.722;9.362;2022-07-29T13:22:02;16.10;;;14.37;;
46589;SDS011;32313;48.722;9.362;2022-07-29T13:24:29;17.50;;;13.67;;
46589;SDS011;32313;48.722;9.362;2022-07-29T13:26:55;15.33;;;13.80;;
46589;SDS011;32313;48.722;9.362;2022-07-29T13:29:20;12.07;;;10.87;;
46589;SDS011;32313;48.722;9.362;2022-07-29T13:31:46;13.37;;;11.70;;
46589;SDS011;32313;48.722;9.362;2022-07-29T13:34:12;14.60;;;12.70;;
46589;SDS011;32313;48.722;9.362;2022-07-29T13:36:38;16.47;;;14.17;;
46589;SDS011;32313;48.722;9.362;2022-07-29T13:39:04;18.30;;;15.87;;
46589;SDS011;32313;48.722;9.362;2022-07-29T13:41:29;18.53;;;15.57;;
46589;SDS011;32313;48.722;9.362;2022-07-29T13:43:55;18.90;;;16.47;;
46589;SDS011;32313;48.722;9.362;2022-07-29T13:46:21;18.90;;;15.87;;
46589;SDS011;32313;48.722;9.362;2022-07-29T13:48:46;19.07;;;17.13;;
46589;SDS011;32313;48.722;9.362;2022-07-29T13:51:12;16.97;;;15.17;;
46589;SDS011;32313;48.722;9.362;2022-07-29T13:53:38;18.13;;;15.43;;
46589;SDS011;32313;48.722;9.362;2022-07-29T13:56:03;17.83;;;15.33;;
46589;SDS011;32313;48.722;9.362;2022-07-29T13:58:31;17.37;;;15.60;;
46589;SDS011;32313;48.722;9.362;2022-07-29T14:00:58;19.87;;;17.77;;
46589;SDS011;32313;48.722;9.362;2022-07-29T14:03:24;17.87;;;15.87;;
46589;SDS011;32313;48.722;9.362;2022-07-29T14:05:50;22.63;;;20.37;;
46589;SDS011;32313;48.722;9.362;2022-07-29T14:08:16;12.70;;;11.47;;
46589;SDS011;32313;48.722;9.362;2022-07-29T14:10:42;21.57;;;19.27;;
46589;SDS011;32313;48.722;9.362;2022-07-29T14:13:07;17.67;;;15.87;;
46589;SDS011;32313;48.722;9.362;2022-07-29T14:15:33;18.93;;;17.03;;
46589;SDS011;32313;48.722;9.362;2022-07-29T14:17:59;18.03;;;16.23;;
46589;SDS011;32313;48.722;9.362;2022-07-29T14:20:24;16.50;;;14.90;;
46589;SDS011;32313;48.722;9.362;2022-07-29T14:22:50;17.00;;;15.30;;
46589;SDS011;32313;48.722;9.362;2022-07-29T14:25:16;16.10;;;14.60;;
46589;SDS011;32313;48.722;9.362;2022-07-29T14:27:42;17.13;;;15.43;;
46589;SDS011;32313;48.722;9.362;2022-07-29T14:30:08;18.60;;;15.97;;
46589;SDS011;32313;48.722;9.362;2022-07-29T14:32:34;17.77;;;16.03;;
46589;SDS011;32313;48.722;9.362;2022-07-29T14:35:00;15.13;;;13.63;;
46589;SDS011;32313;48.722;9.362;2022-07-29T14:37:27;14.20;;;12.90;;
46589;SDS011;32313;48.722;9.362;2022-07-29T14:39:53;14.07;;;12.67;;
46589;SDS011;32313;48.722;9.362;2022-07-29T14:42:19;13.97;;;12.70;;
46589;SDS011;32313;48.722;9.362;2022-07-29T14:44:45;12.90;;;11.70;;
46589;SDS011;32313;48.722;9.362;2022-07-29T14:47:12;12.43;;;11.23;;
46589;SDS011;32313;48.722;9.362;2022-07-29T14:49:38;12.27;;;11.17;;
46589;SDS011;32313;48.722;9.362;2022-07-29T14:52:04;13.60;;;12.27;;
46589;SDS011;32313;48.722;9.362;2022-07-29T14:54:30;12.07;;;10.93;;
46589;SDS011;32313;48.722;9.362;2022-07-29T14:56:55;10.93;;;10.03;;
46589;SDS011;32313;48.722;9.362;2022-07-29T14:59:22;12.20;;;10.93;;
46589;SDS011;32313;48.722;9.362;2022-07-29T15:01:48;11.43;;;10.43;;
46589;SDS011;32313;48.722;9.362;2022-07-29T15:04:14;10.87;;;9.83;;
46589;SDS011;32313;48.722;9.362;2022-07-29T15:06:40;12.90;;;11.57;;
46589;SDS011;32313;48.722;9.362;2022-07-29T15:09:06;12.53;;;11.40;;
46589;SDS011;32313;48.722;9.362;2022-07-29T15:11:31;11.90;;;10.90;;
46589;SDS011;32313;48.722;9.362;2022-07-29T15:13:57;13.80;;;12.50;;
46589;SDS011;32313;48.722;9.362;2022-07-29T15:16:23;13.83;;;12.63;;
46589;SDS011;32313;48.722;9.362;2022-07-29T15:18:49;12.07;;;10.97;;
46589;SDS011;32313;48.722;9.362;2022-07-29T15:21:15;14.97;;;13.57;;
46589;SDS011;32313;48.722;9.362;2022-07-29T15:23:40;13.03;;;11.90;;
46589;SDS011;32313;48.722;9.362;2022-07-29T15:26:06;12.83;;;11.70;;
46589;SDS011;32313;48.722;9.362;2022-07-29T15:28:31;13.60;;;12.40;;
46589;SDS011;32313;48.722;9.362;2022-07-29T15:30:57;15.03;;;13.53;;
46589;SDS011;32313;48.722;9.362;2022-07-29T15:33:23;13.00;;;11.70;;
46589;SDS011;32313;48.722;9.362;2022-07-29T15:35:49;12.40;;;11.23;;
46589;SDS011;32313;48.722;9.362;2022-07-29T15:38:15;14.73;;;12.60;;
46589;SDS011;32313;48.722;9.362;2022-07-29T15:40:44;14.17;;;12.73;;
46589;SDS011;32313;48.722;9.362;2022-07-29T15:43:11;13.33;;;12.13;;